createdAt,value
2023-02-11T00:05:13.553Z,42.80
2023-02-11T00:10:35.417Z,33.63
2023-02-11T00:15:57.266Z,34.65
2023-02-11T00:21:22.192Z,36.00
2023-02-11T00:26:44.000Z,35.30
2023-02-11T00:32:06.374Z,31.23
2023-02-11T00:37:28.233Z,31.80
2023-02-11T00:42:50.120Z,28.65
2023-02-11T00:48:11.953Z,26.42
2023-02-11T00:53:34.826Z,33.40
2023-02-11T00:58:56.626Z,23.13
2023-02-11T01:04:18.531Z,26.92
2023-02-11T01:09:40.396Z,29.42
2023-02-11T01:15:02.512Z,25.88
2023-02-11T01:20:27.738Z,28.00
2023-02-11T01:25:50.446Z,36.17
2023-02-11T01:31:12.936Z,33.33
2023-02-11T01:36:34.843Z,32.20
2023-02-11T01:41:56.660Z,30.10
2023-02-11T01:47:19.789Z,30.20
2023-02-11T01:52:42.016Z,31.10
2023-02-11T01:58:05.264Z,27.70
2023-02-11T02:03:28.715Z,30.27
2023-02-11T02:09:01.376Z,29.02
2023-02-11T02:14:23.208Z,37.65
2023-02-11T02:19:54.302Z,29.00
2023-02-11T02:25:35.515Z,27.80
2023-02-11T02:31:34.877Z,25.15
2023-02-11T02:37:12.549Z,26.88
2023-02-11T02:42:35.728Z,30.00
2023-02-11T02:47:58.331Z,26.65
2023-02-11T02:53:56.712Z,26.80
2023-02-11T02:59:18.472Z,26.55
2023-02-11T03:05:01.634Z,24.98
2023-02-11T03:10:36.510Z,23.25
2023-02-11T03:16:01.874Z,25.25
2023-02-11T03:21:24.767Z,27.02
2023-02-11T03:26:49.367Z,26.30
2023-02-11T03:32:14.187Z,29.90
2023-02-11T03:37:45.500Z,23.45
2023-02-11T03:43:34.917Z,28.23
2023-02-11T03:49:02.852Z,24.73
2023-02-11T03:54:30.441Z,24.52
2023-02-11T03:59:55.814Z,25.65
2023-02-11T04:05:17.811Z,22.17
2023-02-11T04:10:39.702Z,23.73
2023-02-11T04:16:01.576Z,24.95
2023-02-11T04:21:23.435Z,29.65
2023-02-11T04:26:45.281Z,25.85
2023-02-11T04:32:07.436Z,37.13
2023-02-11T04:37:29.430Z,29.00
2023-02-11T04:42:51.262Z,28.65
2023-02-11T04:48:13.098Z,32.00
2023-02-11T04:53:35.050Z,31.10
2023-02-11T04:58:56.925Z,25.48
2023-02-11T05:04:18.874Z,27.95
2023-02-11T05:09:40.814Z,28.70
2023-02-11T05:15:02.636Z,31.77
2023-02-11T05:20:24.589Z,31.00
2023-02-11T05:25:46.450Z,34.10
2023-02-11T05:31:08.874Z,35.75
2023-02-11T05:36:33.334Z,30.42
2023-02-11T05:41:55.358Z,29.25
2023-02-11T05:47:17.176Z,32.03
2023-02-11T05:52:39.109Z,33.90
2023-02-11T05:58:01.536Z,29.98
2023-02-11T06:03:23.424Z,33.75
2023-02-11T06:08:45.277Z,33.10
2023-02-11T06:14:07.117Z,34.65
2023-02-11T06:19:29.063Z,30.80
2023-02-11T06:25:01.441Z,33.17
2023-02-11T06:30:23.775Z,35.65
2023-02-11T06:35:45.634Z,35.90
2023-02-11T06:41:12.936Z,32.15
2023-02-11T06:46:34.876Z,33.35
2023-02-11T06:51:57.544Z,35.88
2023-02-11T06:57:19.360Z,35.25
2023-02-11T07:02:41.281Z,33.92
2023-02-11T07:08:03.160Z,35.67
2023-02-11T07:13:24.998Z,33.45
2023-02-11T07:18:48.288Z,37.72
2023-02-11T07:24:11.241Z,34.95
2023-02-11T07:29:33.351Z,40.38
2023-02-11T07:34:55.232Z,40.72
2023-02-11T07:40:17.266Z,37.88
2023-02-11T07:45:39.379Z,41.95
2023-02-11T07:51:10.248Z,44.17
2023-02-11T07:56:32.882Z,43.50
2023-02-11T08:01:54.776Z,41.35
2023-02-11T08:07:17.737Z,45.67
2023-02-11T08:12:39.733Z,41.45
2023-02-11T08:18:01.630Z,41.90
2023-02-11T08:23:23.469Z,43.17
2023-02-11T08:28:47.074Z,46.30
2023-02-11T08:34:09.214Z,42.83
2023-02-11T08:39:31.007Z,41.10
2023-02-11T08:44:52.849Z,40.22
2023-02-11T08:50:15.017Z,51.03
2023-02-11T08:55:37.023Z,42.67
2023-02-11T09:00:59.009Z,40.05
2023-02-11T09:06:22.749Z,43.10
2023-02-11T09:11:45.339Z,41.95
2023-02-11T09:17:07.250Z,45.85
2023-02-11T09:22:29.278Z,42.83
2023-02-11T09:27:51.356Z,43.47
2023-02-11T09:33:13.304Z,39.70
2023-02-11T09:38:35.158Z,40.88
2023-02-11T09:44:00.523Z,38.55
2023-02-11T09:49:31.071Z,42.30
2023-02-11T09:54:56.289Z,41.08
2023-02-11T10:00:18.224Z,39.75
2023-02-11T10:06:04.780Z,37.67
2023-02-11T10:11:37.410Z,41.65
2023-02-11T10:17:11.243Z,39.50
2023-02-11T10:22:41.764Z,39.33
2023-02-11T10:28:13.687Z,37.13
2023-02-11T10:33:47.509Z,39.00
2023-02-11T10:39:19.861Z,40.40
2023-02-11T10:44:55.039Z,36.95
2023-02-11T10:50:30.338Z,40.00
2023-02-11T10:55:57.074Z,38.47
2023-02-11T11:01:24.626Z,46.35
2023-02-11T11:06:47.177Z,48.55
2023-02-11T11:12:36.872Z,46.95
2023-02-11T11:18:22.155Z,52.38
2023-02-11T11:24:02.407Z,53.78
2023-02-11T11:29:35.780Z,54.72
2023-02-11T11:35:03.279Z,54.65
2023-02-11T11:40:30.647Z,55.28
2023-02-11T11:45:59.134Z,54.42
2023-02-11T11:51:22.308Z,53.88
2023-02-11T11:57:18.631Z,57.15
2023-02-11T12:02:59.030Z,54.95
2023-02-11T12:08:26.885Z,58.15
2023-02-11T12:14:02.812Z,51.38
2023-02-11T12:19:48.152Z,49.90
2023-02-11T12:25:22.185Z,52.27
2023-02-11T12:31:10.363Z,54.60
2023-02-11T12:36:44.878Z,50.08
2023-02-11T12:42:33.267Z,55.45
2023-02-11T12:48:11.387Z,53.83
2023-02-11T12:53:56.169Z,52.20
2023-02-11T12:59:22.671Z,54.63
2023-02-11T13:10:36.879Z,53.67
2023-02-11T13:16:01.423Z,49.42
2023-02-11T13:22:08.611Z,54.60
2023-02-11T13:27:59.345Z,52.47
2023-02-11T13:33:36.567Z,50.78
2023-02-11T13:39:05.616Z,58.25
2023-02-11T13:44:28.300Z,55.38
2023-02-11T13:49:51.976Z,53.47
2023-02-11T13:55:13.742Z,58.17
2023-02-11T14:00:35.537Z,51.72
2023-02-11T14:06:09.347Z,52.88
2023-02-11T14:11:34.218Z,47.22
2023-02-11T14:16:59.152Z,53.33
2023-02-11T14:22:40.938Z,54.95
2023-02-11T14:28:16.547Z,52.55
2023-02-11T14:34:06.023Z,45.47
2023-02-11T14:39:49.497Z,57.42
2023-02-11T14:45:19.726Z,53.60
2023-02-11T14:50:49.545Z,52.78
2023-02-11T14:56:23.929Z,49.17
2023-02-11T15:01:50.015Z,42.95
2023-02-11T15:07:13.574Z,46.33
2023-02-11T15:12:35.435Z,48.83
2023-02-11T15:18:00.191Z,48.15
2023-02-11T15:23:26.911Z,47.13
2023-02-11T15:28:48.747Z,47.10
2023-02-11T15:34:12.088Z,47.83
2023-02-11T15:39:39.211Z,43.75
2023-02-11T15:45:21.558Z,46.20
2023-02-11T15:50:50.713Z,47.92
2023-02-11T15:56:21.696Z,48.33
2023-02-11T16:01:45.014Z,45.45
2023-02-11T16:07:06.920Z,43.92
2023-02-11T16:12:28.749Z,42.05
2023-02-11T16:17:50.821Z,40.22
2023-02-11T16:23:36.932Z,40.47
2023-02-11T16:29:14.366Z,38.78
2023-02-11T16:34:36.394Z,35.10
2023-02-11T16:39:58.339Z,35.00
2023-02-11T16:45:20.602Z,30.67
2023-02-11T16:50:51.428Z,28.83
2023-02-11T16:56:18.125Z,27.35
2023-02-11T17:01:42.279Z,27.75
2023-02-11T17:07:04.146Z,22.65
2023-02-11T17:12:25.967Z,24.58
2023-02-11T17:17:47.791Z,24.27
2023-02-11T17:23:09.694Z,23.35
2023-02-11T17:28:31.611Z,23.23
2023-02-11T17:33:53.482Z,24.30
2023-02-11T17:39:15.783Z,22.85
2023-02-11T17:44:38.131Z,24.08
2023-02-11T17:50:00.140Z,24.55
2023-02-11T17:55:22.030Z,19.33
2023-02-11T18:00:43.966Z,19.58
2023-02-11T18:06:07.291Z,19.75
2023-02-11T18:11:30.072Z,19.23
2023-02-11T18:16:52.886Z,20.80
2023-02-11T18:22:15.508Z,26.52
2023-02-11T18:27:37.521Z,16.55
2023-02-11T18:32:59.375Z,19.15
2023-02-11T18:38:21.326Z,17.13
2023-02-11T18:43:43.180Z,19.15
2023-02-11T18:49:05.050Z,20.08
2023-02-11T18:54:26.903Z,19.48
2023-02-11T18:59:48.833Z,18.35
2023-02-11T19:05:10.765Z,20.30
2023-02-11T19:10:32.628Z,19.10
2023-02-11T19:15:54.569Z,20.80
2023-02-11T19:21:16.465Z,19.00
2023-02-11T19:26:38.913Z,20.35
2023-02-11T19:32:02.608Z,25.00
2023-02-11T19:37:24.508Z,23.65
2023-02-11T19:42:46.349Z,25.17
2023-02-11T19:48:12.635Z,20.50
2023-02-11T19:53:34.701Z,19.23
2023-02-11T19:58:57.068Z,18.20
2023-02-11T20:04:18.946Z,21.25
2023-02-11T20:09:40.756Z,20.67
2023-02-11T20:15:02.748Z,18.30
2023-02-11T20:20:24.617Z,20.33
2023-02-11T20:25:46.478Z,21.60
2023-02-11T20:31:09.016Z,20.55
2023-02-11T20:36:33.361Z,20.67
2023-02-11T20:41:55.251Z,23.38
2023-02-11T20:47:17.082Z,21.60
2023-02-11T20:52:39.025Z,20.45
2023-02-11T20:58:00.898Z,18.05
2023-02-11T21:03:22.821Z,18.83
2023-02-11T21:08:44.729Z,17.42
2023-02-11T21:14:06.966Z,16.67
2023-02-11T21:19:28.805Z,7.22
2023-02-11T21:24:50.707Z,6.97
2023-02-11T21:30:12.961Z,6.82
2023-02-11T21:35:36.465Z,6.43
2023-02-11T21:41:04.192Z,5.97
2023-02-11T21:46:26.913Z,6.18
2023-02-11T21:51:48.803Z,5.03
2023-02-11T21:57:10.617Z,5.35
2023-02-11T22:02:32.409Z,5.47
2023-02-11T22:07:54.286Z,7.25
2023-02-11T22:13:16.168Z,5.70
2023-02-11T22:18:38.226Z,7.40
2023-02-11T22:24:00.148Z,8.52
2023-02-11T22:29:22.128Z,4.38
2023-02-11T22:34:44.303Z,5.07
2023-02-11T22:40:06.945Z,6.88
2023-02-11T22:45:28.795Z,6.03
2023-02-11T22:50:50.637Z,2.55
2023-02-11T22:56:15.583Z,4.95
2023-02-11T23:01:38.051Z,5.57
2023-02-11T23:06:59.877Z,3.75
2023-02-11T23:12:21.702Z,2.55
2023-02-11T23:17:43.533Z,5.05
2023-02-11T23:23:05.573Z,2.88
2023-02-11T23:28:27.789Z,2.42
2023-02-11T23:33:50.160Z,3.20
2023-02-11T23:39:14.990Z,2.70
2023-02-11T23:44:36.812Z,5.78
2023-02-11T23:49:59.652Z,3.92
2023-02-11T23:55:21.634Z,5.07
